createdAt,value
2023-02-09T00:04:29.564Z,61.79
2023-02-09T00:19:23.793Z,62.17
2023-02-09T00:49:06.494Z,62.35
2023-02-09T01:18:51.253Z,62.90
2023-02-09T01:33:43.198Z,63.46
2023-02-09T01:48:34.076Z,64.98
2023-02-09T02:03:23.990Z,65.61
2023-02-09T02:18:15.578Z,66.37
2023-02-09T02:33:15.217Z,66.95
2023-02-09T02:48:19.285Z,67.35
2023-02-09T03:03:14.187Z,70.51
2023-02-09T03:18:09.160Z,70.52
2023-02-09T03:33:02.162Z,71.28
2023-02-09T03:47:51.041Z,71.96
2023-02-09T04:02:41.493Z,72.61
2023-02-09T04:17:32.295Z,73.24
2023-02-09T04:32:22.279Z,73.09
2023-02-09T04:47:12.136Z,73.45
2023-02-09T05:02:03.895Z,73.89
2023-02-09T05:16:56.012Z,74.46
2023-02-09T05:31:45.775Z,74.62
2023-02-09T05:46:36.573Z,74.69
2023-02-09T06:01:27.844Z,75.09
2023-02-09T06:16:20.930Z,75.13
2023-02-09T06:31:13.869Z,76.32
2023-02-09T06:46:08.715Z,75.91
2023-02-09T07:01:03.628Z,76.65
2023-02-09T07:15:56.727Z,76.89
2023-02-09T07:30:48.982Z,77.17
2023-02-09T07:45:40.632Z,77.33
2023-02-09T08:00:31.382Z,77.18
2023-02-09T08:15:22.369Z,76.25
2023-02-09T08:30:14.187Z,75.58
2023-02-09T08:45:09.220Z,74.14
2023-02-09T09:00:13.376Z,72.33
2023-02-09T09:14:56.548Z,71.45
2023-02-09T09:29:49.499Z,69.80
2023-02-09T09:44:41.504Z,67.53
2023-02-09T09:59:35.514Z,66.17
2023-02-09T10:14:29.344Z,64.94
2023-02-09T10:29:26.299Z,65.13
2023-02-09T10:44:21.414Z,64.57
2023-02-09T10:59:16.437Z,63.76
2023-02-09T11:14:13.392Z,63.02
2023-02-09T11:29:24.850Z,62.83
2023-02-09T11:44:22.045Z,61.60
2023-02-09T11:59:26.052Z,60.27
2023-02-09T12:14:28.200Z,59.27
2023-02-09T12:29:39.698Z,56.69
2023-02-09T12:44:35.622Z,55.91
2023-02-09T12:59:26.558Z,54.72
2023-02-09T13:29:21.031Z,52.32
2023-02-09T13:44:22.860Z,52.77
2023-02-09T13:59:20.827Z,51.62
2023-02-09T14:14:14.731Z,50.15
2023-02-09T14:29:11.895Z,48.80
2023-02-09T14:44:08.741Z,48.16
2023-02-09T14:59:02.892Z,49.93
2023-02-09T15:13:58.869Z,51.00
2023-02-09T15:28:54.416Z,50.62
2023-02-09T16:13:33.268Z,51.24
2023-02-09T16:28:27.313Z,51.74
2023-02-09T16:43:19.095Z,52.67
2023-02-09T16:58:10.029Z,53.77
2023-02-09T17:12:59.862Z,54.91
2023-02-09T17:27:49.788Z,55.89
2023-02-09T17:42:39.569Z,57.12
2023-02-09T17:57:31.605Z,57.88
2023-02-09T18:12:23.468Z,59.00
2023-02-09T18:27:17.434Z,59.16
2023-02-09T18:42:10.351Z,61.42
2023-02-09T18:57:02.243Z,62.23
2023-02-09T19:11:53.266Z,62.91
2023-02-09T19:26:43.281Z,63.66
2023-02-09T19:41:33.056Z,63.67
2023-02-09T19:56:25.004Z,64.18
2023-02-09T20:11:17.920Z,64.25
2023-02-09T20:26:08.927Z,65.48
2023-02-09T20:40:59.159Z,66.13
2023-02-09T20:55:50.023Z,67.29
2023-02-09T21:10:41.866Z,67.63
2023-02-09T21:25:32.469Z,68.04
2023-02-09T21:40:22.357Z,68.14
2023-02-09T21:55:13.088Z,68.94
2023-02-09T22:10:05.051Z,69.69
2023-02-09T22:24:57.856Z,71.03
2023-02-09T22:39:48.752Z,71.43
2023-02-09T22:54:39.181Z,72.22
2023-02-09T23:09:30.421Z,72.96
2023-02-09T23:24:20.289Z,73.15
2023-02-09T23:39:10.262Z,73.01
2023-02-09T23:54:01.108Z,73.16
